createdAt,value
2022-11-13T00:01:52.454Z,4.80
2022-11-13T00:03:54.170Z,4.80
2022-11-13T00:06:00.613Z,4.80
2022-11-13T00:08:02.495Z,4.90
2022-11-13T00:10:04.714Z,4.80
2022-11-13T00:12:06.477Z,4.80
2022-11-13T00:14:08.725Z,4.80
2022-11-13T00:16:13.651Z,4.70
2022-11-13T00:18:15.356Z,4.70
2022-11-13T00:20:18.426Z,4.70
2022-11-13T00:22:20.096Z,4.70
2022-11-13T00:24:21.797Z,4.70
2022-11-13T00:26:29.098Z,4.70
2022-11-13T00:28:31.027Z,4.60
2022-11-13T00:30:32.783Z,4.80
2022-11-13T00:32:34.542Z,4.70
2022-11-13T00:34:51.521Z,4.70
2022-11-13T00:36:53.209Z,4.60
2022-11-13T00:38:55.652Z,4.60
2022-11-13T00:40:57.883Z,4.50
2022-11-13T00:42:59.574Z,4.50
2022-11-13T00:45:01.269Z,4.50
2022-11-13T00:47:03.020Z,4.50
2022-11-13T00:49:05.193Z,4.50
2022-11-13T00:51:07.196Z,4.50
2022-11-13T00:53:11.560Z,4.50
2022-11-13T00:55:15.795Z,4.40
2022-11-13T00:57:17.565Z,4.50
2022-11-13T00:59:19.319Z,4.50
2022-11-13T01:01:21.317Z,4.50
2022-11-13T01:03:23.031Z,4.50
2022-11-13T01:05:25.102Z,4.40
2022-11-13T01:07:26.866Z,4.40
2022-11-13T01:09:28.628Z,4.40
2022-11-13T01:11:31.007Z,4.40
2022-11-13T01:13:32.850Z,4.40
2022-11-13T01:15:34.630Z,4.40
2022-11-13T01:17:36.794Z,4.40
2022-11-13T01:19:38.778Z,4.40
2022-11-13T01:21:40.534Z,4.40
2022-11-13T01:23:42.903Z,4.40
2022-11-13T01:25:44.635Z,4.40
2022-11-13T01:27:46.324Z,4.40
2022-11-13T01:29:48.108Z,4.40
2022-11-13T01:31:49.830Z,4.40
2022-11-13T01:33:51.728Z,4.40
2022-11-13T01:35:59.309Z,4.40
2022-11-13T01:38:01.058Z,4.40
2022-11-13T01:40:03.406Z,4.40
2022-11-13T01:42:05.289Z,4.40
2022-11-13T01:44:13.248Z,4.40
2022-11-13T01:46:26.896Z,4.40
2022-11-13T01:48:39.924Z,4.40
2022-11-13T01:50:41.758Z,4.40
2022-11-13T01:52:43.600Z,4.40
2022-11-13T01:55:03.085Z,4.40
2022-11-13T01:57:05.921Z,4.50
2022-11-13T01:59:10.661Z,4.40
2022-11-13T02:01:12.362Z,4.50
2022-11-13T02:03:14.117Z,4.50
2022-11-13T02:05:15.915Z,4.40
2022-11-13T02:07:21.570Z,4.40
2022-11-13T02:09:36.784Z,4.40
2022-11-13T02:11:39.319Z,4.40
2022-11-13T02:13:41.617Z,4.40
2022-11-13T02:15:45.692Z,4.40
2022-11-13T02:17:56.670Z,4.40
2022-11-13T02:20:02.343Z,4.30
2022-11-13T02:22:06.635Z,4.30
2022-11-13T02:24:18.016Z,4.30
2022-11-13T02:26:21.537Z,4.30
2022-11-13T02:28:23.231Z,4.30
2022-11-13T02:30:32.014Z,4.30
2022-11-13T02:32:33.740Z,4.30
2022-11-13T02:34:35.418Z,4.20
2022-11-13T02:36:37.170Z,4.20
2022-11-13T02:38:41.048Z,4.20
2022-11-13T02:40:43.040Z,4.20
2022-11-13T02:42:44.765Z,4.10
2022-11-13T02:44:46.434Z,4.20
2022-11-13T02:46:48.111Z,4.20
2022-11-13T02:48:49.925Z,4.20
2022-11-13T02:50:51.654Z,4.20
2022-11-13T02:52:53.483Z,4.10
2022-11-13T02:54:55.238Z,4.10
2022-11-13T02:56:56.938Z,4.10
2022-11-13T02:58:58.630Z,4.00
2022-11-13T03:01:02.612Z,4.10
2022-11-13T03:03:04.456Z,4.10
2022-11-13T03:05:14.248Z,4.10
2022-11-13T03:07:16.677Z,4.10
2022-11-13T03:09:18.404Z,4.10
2022-11-13T03:11:20.101Z,4.10
2022-11-13T03:13:21.961Z,4.20
2022-11-13T03:15:23.698Z,4.20
2022-11-13T03:17:26.190Z,4.20
2022-11-13T03:19:28.327Z,4.20
2022-11-13T03:21:31.377Z,4.30
2022-11-13T03:23:33.067Z,4.20
2022-11-13T03:25:35.027Z,4.20
2022-11-13T03:27:36.851Z,4.30
2022-11-13T03:29:38.735Z,4.30
2022-11-13T03:31:40.641Z,4.20
2022-11-13T03:33:42.465Z,4.20
2022-11-13T03:35:47.007Z,4.20
2022-11-13T03:37:49.023Z,4.20
2022-11-13T03:39:50.770Z,4.10
2022-11-13T03:41:52.496Z,4.20
2022-11-13T03:43:54.222Z,4.10
2022-11-13T03:45:56.037Z,4.20
2022-11-13T03:47:57.748Z,4.10
2022-11-13T03:49:59.440Z,4.10
2022-11-13T03:52:01.145Z,4.10
2022-11-13T03:54:02.965Z,4.10
2022-11-13T03:56:04.987Z,4.20
2022-11-13T03:58:06.915Z,4.10
2022-11-13T04:00:09.373Z,4.20
2022-11-13T04:02:11.091Z,4.20
2022-11-13T04:04:12.809Z,4.10
2022-11-13T04:06:14.901Z,4.20
2022-11-13T04:08:17.361Z,4.20
2022-11-13T04:10:19.297Z,4.20
2022-11-13T04:12:21.042Z,4.20
2022-11-13T04:14:22.709Z,4.20
2022-11-13T04:16:24.478Z,4.30
2022-11-13T04:18:26.579Z,4.30
2022-11-13T04:20:29.991Z,4.30
2022-11-13T04:22:31.691Z,4.20
2022-11-13T04:24:33.558Z,4.20
2022-11-13T04:26:35.216Z,4.20
2022-11-13T04:28:36.997Z,4.20
2022-11-13T04:30:39.097Z,4.20
2022-11-13T04:32:40.815Z,4.20
2022-11-13T04:34:42.528Z,4.20
2022-11-13T04:36:44.191Z,4.20
2022-11-13T04:38:45.917Z,4.20
2022-11-13T04:41:12.222Z,4.10
2022-11-13T04:43:13.961Z,4.20
2022-11-13T04:45:27.502Z,4.10
2022-11-13T04:47:29.290Z,4.10
2022-11-13T04:49:30.994Z,4.10
2022-11-13T04:51:32.886Z,4.10
2022-11-13T04:53:34.770Z,4.10
2022-11-13T04:55:36.556Z,4.10
2022-11-13T04:57:38.975Z,4.10
2022-11-13T04:59:40.715Z,4.10
2022-11-13T05:01:42.531Z,4.10
2022-11-13T05:03:44.335Z,4.20
2022-11-13T05:05:46.075Z,4.20
2022-11-13T05:07:47.785Z,4.10
2022-11-13T05:09:49.513Z,4.20
2022-11-13T05:11:51.195Z,4.20
2022-11-13T05:13:52.916Z,4.20
2022-11-13T05:16:03.832Z,4.20
2022-11-13T05:18:05.722Z,4.20
2022-11-13T05:20:07.974Z,4.20
2022-11-13T05:22:09.934Z,4.20
2022-11-13T05:24:12.198Z,4.20
2022-11-13T05:26:14.223Z,4.10
2022-11-13T05:28:15.968Z,4.10
2022-11-13T05:30:17.872Z,4.10
2022-11-13T05:32:19.590Z,4.10
2022-11-13T05:34:21.476Z,4.10
2022-11-13T05:36:23.430Z,4.10
2022-11-13T05:38:25.256Z,4.10
2022-11-13T05:40:27.151Z,4.10
2022-11-13T05:42:28.873Z,4.10
2022-11-13T05:44:30.552Z,4.20
2022-11-13T05:46:32.243Z,4.20
2022-11-13T05:48:34.741Z,4.10
2022-11-13T05:50:36.493Z,4.10
2022-11-13T05:52:38.229Z,4.20
2022-11-13T05:54:39.966Z,4.10
2022-11-13T05:56:41.908Z,4.10
2022-11-13T05:58:44.559Z,4.10
2022-11-13T06:00:46.286Z,4.10
2022-11-13T06:02:48.092Z,4.00
2022-11-13T06:04:51.643Z,4.00
2022-11-13T06:06:53.565Z,4.00
2022-11-13T06:08:56.256Z,4.00
2022-11-13T06:11:02.997Z,4.10
2022-11-13T06:13:04.692Z,3.90
2022-11-13T06:15:06.781Z,3.90
2022-11-13T06:17:08.458Z,3.90
2022-11-13T06:19:11.262Z,3.90
2022-11-13T06:21:17.783Z,3.80
2022-11-13T06:23:19.513Z,3.80
2022-11-13T06:25:21.199Z,3.80
2022-11-13T06:27:22.866Z,3.90
2022-11-13T06:29:24.547Z,3.90
2022-11-13T06:31:28.634Z,3.90
2022-11-13T06:33:30.422Z,3.80
2022-11-13T06:35:32.286Z,3.80
2022-11-13T06:37:34.919Z,3.80
2022-11-13T06:39:36.726Z,3.90
2022-11-13T06:41:39.608Z,3.80
2022-11-13T06:43:42.256Z,3.80
2022-11-13T06:45:44.010Z,3.80
2022-11-13T06:47:45.855Z,3.70
2022-11-13T06:49:47.757Z,3.70
2022-11-13T06:51:49.436Z,3.80
2022-11-13T06:53:51.669Z,3.70
2022-11-13T06:55:53.506Z,3.80
2022-11-13T06:57:55.330Z,3.80
2022-11-13T06:59:57.070Z,3.80
2022-11-13T07:01:58.752Z,3.80
2022-11-13T07:04:00.465Z,3.80
2022-11-13T07:06:06.985Z,3.80
2022-11-13T07:08:08.750Z,3.80
2022-11-13T07:10:10.553Z,3.80
2022-11-13T07:12:12.286Z,3.80
2022-11-13T07:14:14.050Z,3.90
2022-11-13T07:16:18.170Z,3.90
2022-11-13T07:18:23.967Z,4.00
2022-11-13T07:20:26.026Z,4.00
2022-11-13T07:22:30.807Z,4.00
2022-11-13T07:24:32.497Z,4.00
2022-11-13T07:26:34.224Z,4.00
2022-11-13T07:28:36.107Z,4.00
2022-11-13T07:30:38.044Z,4.00
2022-11-13T07:32:39.814Z,3.90
2022-11-13T07:34:41.529Z,3.90
2022-11-13T07:36:43.287Z,3.90
2022-11-13T07:38:45.127Z,3.90
2022-11-13T07:40:46.812Z,3.90
2022-11-13T07:42:48.536Z,3.90
2022-11-13T07:44:54.940Z,3.90
2022-11-13T07:46:57.291Z,3.90
2022-11-13T07:48:59.066Z,3.90
2022-11-13T07:51:02.126Z,3.90
2022-11-13T07:53:07.252Z,3.90
2022-11-13T07:55:09.213Z,3.90
2022-11-13T07:57:10.907Z,3.90
2022-11-13T07:59:12.819Z,4.00
2022-11-13T08:01:14.702Z,4.00
2022-11-13T08:03:17.444Z,4.00
2022-11-13T08:05:19.643Z,4.10
2022-11-13T08:07:21.377Z,4.10
2022-11-13T08:09:23.185Z,4.10
2022-11-13T08:11:24.874Z,4.20
2022-11-13T08:13:26.616Z,4.20
2022-11-13T08:15:29.784Z,4.20
2022-11-13T08:17:31.555Z,4.20
2022-11-13T08:19:33.296Z,4.30
2022-11-13T08:21:35.802Z,4.30
2022-11-13T08:23:37.680Z,4.30
2022-11-13T08:25:39.870Z,4.30
2022-11-13T08:27:41.566Z,4.30
2022-11-13T08:29:43.304Z,4.30
2022-11-13T08:31:45.136Z,4.30
2022-11-13T08:33:46.872Z,4.40
2022-11-13T08:35:56.641Z,4.40
2022-11-13T08:38:06.313Z,4.50
2022-11-13T08:40:09.023Z,4.50
2022-11-13T08:42:10.769Z,4.40
2022-11-13T08:44:13.387Z,4.50
2022-11-13T08:46:14.986Z,4.50
2022-11-13T08:48:17.242Z,4.50
2022-11-13T08:50:19.077Z,4.40
2022-11-13T08:52:20.935Z,4.40
2022-11-13T08:54:22.726Z,4.40
2022-11-13T08:56:24.441Z,4.50
2022-11-13T08:58:26.422Z,4.50
2022-11-13T09:00:30.046Z,4.50
2022-11-13T09:02:31.976Z,4.60
2022-11-13T09:04:33.689Z,4.80
2022-11-13T09:06:35.569Z,4.80
2022-11-13T09:08:37.313Z,4.80
2022-11-13T09:10:39.145Z,4.80
2022-11-13T09:12:40.877Z,4.80
2022-11-13T09:14:42.602Z,4.90
2022-11-13T09:16:44.490Z,5.00
2022-11-13T09:18:49.666Z,5.00
2022-11-13T09:20:51.442Z,5.10
2022-11-13T09:23:00.878Z,5.10
2022-11-13T09:25:02.608Z,5.20
2022-11-13T09:27:04.598Z,5.20
2022-11-13T09:29:06.426Z,5.20
2022-11-13T09:31:08.331Z,5.30
2022-11-13T09:33:10.920Z,5.30
2022-11-13T09:35:12.583Z,5.40
2022-11-13T09:37:15.697Z,5.40
2022-11-13T09:39:17.393Z,5.50
2022-11-13T09:41:27.203Z,5.50
2022-11-13T09:43:33.853Z,5.60
2022-11-13T09:45:35.723Z,5.70
2022-11-13T09:47:42.403Z,5.70
2022-11-13T09:49:49.419Z,5.70
2022-11-13T09:51:57.263Z,5.70
2022-11-13T09:54:02.708Z,5.70
2022-11-13T09:56:23.927Z,5.70
2022-11-13T09:58:36.131Z,5.80
2022-11-13T10:00:38.080Z,5.80
2022-11-13T10:02:58.260Z,5.90
2022-11-13T10:05:23.580Z,6.00
2022-11-13T10:07:39.025Z,6.00
2022-11-13T10:10:01.660Z,5.90
2022-11-13T10:12:07.588Z,6.00
2022-11-13T10:14:24.700Z,6.00
2022-11-13T10:16:26.330Z,6.10
2022-11-13T10:18:34.949Z,6.20
2022-11-13T10:20:42.952Z,6.20
2022-11-13T10:22:51.706Z,6.30
2022-11-13T10:24:58.439Z,6.30
2022-11-13T10:27:00.188Z,6.30
2022-11-13T10:29:11.287Z,6.40
2022-11-13T10:31:13.646Z,6.40
2022-11-13T10:33:19.076Z,6.40
2022-11-13T10:35:23.412Z,6.40
2022-11-13T10:37:50.353Z,6.50
2022-11-13T10:39:52.078Z,6.60
2022-11-13T10:41:55.337Z,6.70
2022-11-13T10:43:59.454Z,6.70
2022-11-13T10:46:04.410Z,6.60
2022-11-13T10:48:06.284Z,6.90
2022-11-13T10:50:15.184Z,6.90
2022-11-13T10:52:28.145Z,6.90
2022-11-13T10:54:30.878Z,6.90
2022-11-13T10:56:35.108Z,6.90
2022-11-13T10:58:36.836Z,7.00
2022-11-13T11:00:41.433Z,7.00
2022-11-13T11:02:49.263Z,7.10
2022-11-13T11:05:16.096Z,7.20
2022-11-13T11:07:23.310Z,7.20
2022-11-13T11:09:30.898Z,7.30
2022-11-13T11:11:51.201Z,7.30
2022-11-13T11:13:52.927Z,7.30
2022-11-13T11:15:58.834Z,7.30
2022-11-13T11:18:26.696Z,7.30
2022-11-13T11:20:50.729Z,7.30
2022-11-13T11:23:03.210Z,7.30
2022-11-13T11:25:13.276Z,7.30
2022-11-13T11:27:17.993Z,7.40
2022-11-13T11:29:28.935Z,7.40
2022-11-13T11:31:48.725Z,7.40
2022-11-13T11:34:17.936Z,7.50
2022-11-13T11:36:36.809Z,7.60
2022-11-13T11:39:12.484Z,7.60
2022-11-13T11:41:17.074Z,7.70
2022-11-13T11:43:35.108Z,7.70
2022-11-13T11:45:41.824Z,7.70
2022-11-13T11:47:44.363Z,7.80
2022-11-13T11:49:46.287Z,7.80
2022-11-13T11:52:21.570Z,7.90
2022-11-13T11:54:53.135Z,7.90
2022-11-13T11:57:06.905Z,8.00
2022-11-13T11:59:47.841Z,8.00
2022-11-13T12:02:27.512Z,8.10
2022-11-13T12:05:04.664Z,8.10
2022-11-13T12:07:15.318Z,8.20
2022-11-13T12:09:32.449Z,8.30
2022-11-13T12:11:38.102Z,8.40
2022-11-13T12:13:59.243Z,8.50
2022-11-13T12:16:25.627Z,8.60
2022-11-13T12:18:42.489Z,8.60
2022-11-13T12:21:08.490Z,8.70
2022-11-13T12:23:16.137Z,8.80
2022-11-13T12:25:47.448Z,8.90
2022-11-13T12:28:19.929Z,8.90
2022-11-13T12:30:30.288Z,9.00
2022-11-13T12:33:04.254Z,9.10
2022-11-13T12:35:19.920Z,9.20
2022-11-13T12:37:47.070Z,9.20
2022-11-13T12:40:03.521Z,9.30
2022-11-13T12:42:29.504Z,9.30
2022-11-13T12:44:41.061Z,9.40
2022-11-13T12:46:43.898Z,9.50
2022-11-13T12:48:48.086Z,9.50
2022-11-13T12:51:04.466Z,9.60
2022-11-13T12:53:12.161Z,9.70
2022-11-13T12:55:31.961Z,9.80
2022-11-13T12:57:33.716Z,9.80
2022-11-13T12:59:39.354Z,9.80
2022-11-13T13:01:52.233Z,9.90
2022-11-13T13:04:21.923Z,9.90
2022-11-13T13:06:29.758Z,9.90
2022-11-13T13:08:54.748Z,9.90
2022-11-13T13:11:03.658Z,9.90
2022-11-13T13:13:37.400Z,9.90
2022-11-13T13:15:43.019Z,9.90
2022-11-13T13:17:44.703Z,10.00
2022-11-13T13:19:58.071Z,10.00
2022-11-13T13:21:59.955Z,10.00
2022-11-13T13:24:25.639Z,10.00
2022-11-13T13:26:30.027Z,10.00
2022-11-13T13:28:32.989Z,10.10
2022-11-13T13:31:09.512Z,10.10
2022-11-13T13:33:47.110Z,10.20
2022-11-13T13:35:57.491Z,10.20
2022-11-13T13:38:21.131Z,10.10
2022-11-13T13:40:44.548Z,10.20
2022-11-13T13:42:52.053Z,10.20
2022-11-13T13:45:28.657Z,10.20
2022-11-13T13:47:49.411Z,10.20
2022-11-13T13:49:52.018Z,10.20
2022-11-13T13:51:56.459Z,10.20
2022-11-13T13:54:01.412Z,10.30
2022-11-13T13:56:04.441Z,10.30
2022-11-13T13:58:15.203Z,10.10
2022-11-13T14:00:19.179Z,10.30
2022-11-13T14:02:23.286Z,10.30
2022-11-13T14:04:28.951Z,10.40
2022-11-13T14:06:30.722Z,10.40
2022-11-13T14:08:32.710Z,10.40
2022-11-13T14:10:36.513Z,10.40
2022-11-13T14:12:42.817Z,10.40
2022-11-13T14:14:44.576Z,10.40
2022-11-13T14:16:51.643Z,10.50
2022-11-13T14:19:05.926Z,10.50
2022-11-13T14:21:17.133Z,10.50
2022-11-13T14:23:41.859Z,10.60
2022-11-13T14:25:44.985Z,10.50
2022-11-13T14:27:46.817Z,10.50
2022-11-13T14:29:51.522Z,10.50
2022-11-13T14:31:53.321Z,10.50
2022-11-13T14:33:55.373Z,10.50
2022-11-13T14:35:58.043Z,10.50
2022-11-13T14:37:59.838Z,10.50
2022-11-13T14:40:14.118Z,10.50
2022-11-13T14:42:23.080Z,10.50
2022-11-13T14:44:34.976Z,10.40
2022-11-13T14:46:45.760Z,10.40
2022-11-13T14:48:54.276Z,10.40
2022-11-13T14:51:03.392Z,10.40
2022-11-13T14:53:08.162Z,10.40
2022-11-13T14:55:41.044Z,10.30
2022-11-13T14:57:49.519Z,10.30
2022-11-13T14:59:51.252Z,10.20
2022-11-13T15:01:59.561Z,10.30
2022-11-13T15:04:01.628Z,10.20
2022-11-13T15:06:03.504Z,10.20
2022-11-13T15:08:05.743Z,10.20
2022-11-13T15:10:13.651Z,10.30
2022-11-13T15:12:15.372Z,10.10
2022-11-13T15:14:19.655Z,10.10
2022-11-13T15:16:28.345Z,10.10
2022-11-13T15:18:30.170Z,10.00
2022-11-13T15:20:32.500Z,10.00
2022-11-13T15:22:35.041Z,9.90
2022-11-13T15:24:36.846Z,10.00
2022-11-13T15:26:39.782Z,9.80
2022-11-13T15:28:41.504Z,9.70
2022-11-13T15:30:43.407Z,9.70
2022-11-13T15:32:45.375Z,9.60
2022-11-13T15:34:47.094Z,9.50
2022-11-13T15:36:48.830Z,9.50
2022-11-13T15:38:50.636Z,9.40
2022-11-13T15:40:52.356Z,9.30
2022-11-13T15:42:54.151Z,9.30
2022-11-13T15:44:55.951Z,9.20
2022-11-13T15:46:57.655Z,9.10
2022-11-13T15:48:59.384Z,9.00
2022-11-13T15:51:01.101Z,9.00
2022-11-13T15:53:05.534Z,8.90
2022-11-13T15:55:24.661Z,8.80
2022-11-13T15:57:29.089Z,8.70
2022-11-13T15:59:30.800Z,8.60
2022-11-13T16:01:32.691Z,8.60
2022-11-13T16:03:39.563Z,8.50
2022-11-13T16:05:41.370Z,8.40
2022-11-13T16:07:43.270Z,8.40
2022-11-13T16:09:45.897Z,8.30
2022-11-13T16:11:47.664Z,8.30
2022-11-13T16:13:49.539Z,8.10
2022-11-13T16:15:51.311Z,8.00
2022-11-13T16:17:57.177Z,8.00
2022-11-13T16:19:58.921Z,7.90
2022-11-13T16:22:00.681Z,7.90
2022-11-13T16:24:02.727Z,7.80
2022-11-13T16:26:05.162Z,7.80
2022-11-13T16:28:17.638Z,7.70
2022-11-13T16:30:21.903Z,7.60
2022-11-13T16:32:23.704Z,7.60
2022-11-13T16:34:25.492Z,7.50
2022-11-13T16:36:27.715Z,7.40
2022-11-13T16:38:29.470Z,7.40
2022-11-13T16:40:31.462Z,7.30
2022-11-13T16:42:33.156Z,7.30
2022-11-13T16:44:35.357Z,7.20
2022-11-13T16:46:41.620Z,7.20
2022-11-13T16:48:43.617Z,7.10
2022-11-13T16:50:45.438Z,7.10
2022-11-13T16:52:47.320Z,7.00
2022-11-13T16:54:49.073Z,7.00
2022-11-13T16:56:50.896Z,6.90
2022-11-13T16:58:52.634Z,7.00
2022-11-13T17:01:00.057Z,6.80
2022-11-13T17:03:02.039Z,6.80
2022-11-13T17:05:04.834Z,6.80
2022-11-13T17:07:06.637Z,6.70
2022-11-13T17:09:09.489Z,6.60
2022-11-13T17:11:13.751Z,6.60
2022-11-13T17:13:15.525Z,6.50
2022-11-13T17:15:17.463Z,6.50
2022-11-13T17:17:19.375Z,6.50
2022-11-13T17:19:21.417Z,6.50
2022-11-13T17:21:25.298Z,6.40
2022-11-13T17:23:27.388Z,6.40
2022-11-13T17:25:29.557Z,6.30
2022-11-13T17:27:31.322Z,6.40
2022-11-13T17:29:33.724Z,6.30
2022-11-13T17:31:35.700Z,6.20
2022-11-13T17:33:37.600Z,6.20
2022-11-13T17:35:39.313Z,6.20
2022-11-13T17:37:41.068Z,6.20
2022-11-13T17:39:42.787Z,6.10
2022-11-13T17:41:44.521Z,6.10
2022-11-13T17:43:46.323Z,6.10
2022-11-13T17:45:51.715Z,6.10
2022-11-13T17:47:53.490Z,6.00
2022-11-13T17:49:56.314Z,6.00
2022-11-13T17:51:58.138Z,5.90
2022-11-13T17:54:00.477Z,5.90
2022-11-13T17:56:05.175Z,5.80
2022-11-13T17:58:07.071Z,5.80
2022-11-13T18:00:09.527Z,5.80
2022-11-13T18:02:11.979Z,5.80
2022-11-13T18:04:13.822Z,5.80
2022-11-13T18:06:19.769Z,5.70
2022-11-13T18:08:21.812Z,5.70
2022-11-13T18:10:23.540Z,5.70
2022-11-13T18:12:25.294Z,5.70
2022-11-13T18:14:27.389Z,5.60
2022-11-13T18:16:34.544Z,5.60
2022-11-13T18:18:36.491Z,5.60
2022-11-13T18:20:40.323Z,5.50
2022-11-13T18:22:42.046Z,5.50
2022-11-13T18:24:44.086Z,5.50
2022-11-13T18:26:46.325Z,5.40
2022-11-13T18:28:48.092Z,5.40
2022-11-13T18:30:56.128Z,5.40
2022-11-13T18:32:58.240Z,5.30
2022-11-13T18:35:00.077Z,5.30
2022-11-13T18:37:01.839Z,5.30
2022-11-13T18:39:04.186Z,5.30
2022-11-13T18:41:11.864Z,5.20
2022-11-13T18:43:15.084Z,5.30
2022-11-13T18:45:16.941Z,5.20
2022-11-13T18:47:18.914Z,5.20
2022-11-13T18:49:20.970Z,5.20
2022-11-13T18:51:28.547Z,5.20
2022-11-13T18:53:31.215Z,5.10
2022-11-13T18:55:33.330Z,5.10
2022-11-13T18:57:35.089Z,5.10
2022-11-13T18:59:36.870Z,5.10
2022-11-13T19:01:39.933Z,5.20
2022-11-13T19:04:01.293Z,5.10
2022-11-13T19:06:07.005Z,5.00
2022-11-13T19:08:08.741Z,5.00
2022-11-13T19:10:10.563Z,5.00
2022-11-13T19:12:12.423Z,5.00
2022-11-13T19:14:16.025Z,5.00
2022-11-13T19:16:20.475Z,5.00
2022-11-13T19:18:22.446Z,5.00
2022-11-13T19:20:24.183Z,5.00
2022-11-13T19:22:25.911Z,4.90
2022-11-13T19:24:27.652Z,4.90
2022-11-13T19:26:29.673Z,4.90
2022-11-13T19:28:31.658Z,4.90
2022-11-13T19:30:34.752Z,4.90
2022-11-13T19:32:36.506Z,4.80
2022-11-13T19:34:41.284Z,4.80
2022-11-13T19:36:49.393Z,4.80
2022-11-13T19:38:52.675Z,4.70
2022-11-13T19:40:54.407Z,4.70
2022-11-13T19:42:56.144Z,4.70
2022-11-13T19:44:57.878Z,4.70
2022-11-13T19:46:59.628Z,4.70
2022-11-13T19:49:01.409Z,4.70
2022-11-13T19:51:09.671Z,4.70
2022-11-13T19:53:11.397Z,4.60
2022-11-13T19:55:13.211Z,4.60
2022-11-13T19:57:14.942Z,4.60
2022-11-13T19:59:16.726Z,4.60
2022-11-13T20:01:26.226Z,4.60
2022-11-13T20:03:29.116Z,4.60
2022-11-13T20:05:30.848Z,4.60
2022-11-13T20:07:32.717Z,4.60
2022-11-13T20:09:34.647Z,4.60
2022-11-13T20:11:37.108Z,4.60
2022-11-13T20:13:39.445Z,4.60
2022-11-13T20:15:41.207Z,4.60
2022-11-13T20:17:43.061Z,4.60
2022-11-13T20:19:44.752Z,4.60
2022-11-13T20:21:46.525Z,4.60
2022-11-13T20:23:48.200Z,4.60
2022-11-13T20:25:58.651Z,4.60
2022-11-13T20:28:00.374Z,4.60
2022-11-13T20:30:02.088Z,4.50
2022-11-13T20:32:03.877Z,4.60
2022-11-13T20:34:05.718Z,4.60
2022-11-13T20:36:08.032Z,4.50
2022-11-13T20:38:10.389Z,4.50
2022-11-13T20:40:12.214Z,4.60
2022-11-13T20:42:14.019Z,4.60
2022-11-13T20:44:15.834Z,4.60
2022-11-13T20:46:19.895Z,4.50
2022-11-13T20:48:21.618Z,4.50
2022-11-13T20:50:23.533Z,4.50
2022-11-13T20:52:25.246Z,4.40
2022-11-13T20:54:27.406Z,4.40
2022-11-13T20:56:29.300Z,4.40
2022-11-13T20:58:31.928Z,4.50
2022-11-13T21:00:33.894Z,4.50
2022-11-13T21:02:35.644Z,4.60
2022-11-13T21:04:37.309Z,4.50
2022-11-13T21:06:39.128Z,4.50
2022-11-13T21:08:40.994Z,4.50
2022-11-13T21:10:42.747Z,4.50
2022-11-13T21:12:44.507Z,4.50
2022-11-13T21:14:46.300Z,4.50
2022-11-13T21:16:47.987Z,4.50
2022-11-13T21:18:49.914Z,4.50
2022-11-13T21:20:52.053Z,4.60
2022-11-13T21:22:53.868Z,4.60
2022-11-13T21:24:55.577Z,4.60
2022-11-13T21:26:57.356Z,4.70
2022-11-13T21:29:00.237Z,4.50
2022-11-13T21:31:02.934Z,4.50
2022-11-13T21:33:04.650Z,4.50
2022-11-13T21:35:06.538Z,4.50
2022-11-13T21:37:08.553Z,4.50
2022-11-13T21:39:10.335Z,4.50
2022-11-13T21:41:23.806Z,4.50
2022-11-13T21:43:25.566Z,4.50
2022-11-13T21:45:27.278Z,4.50
2022-11-13T21:47:29.017Z,4.50
2022-11-13T21:49:30.729Z,4.50
2022-11-13T21:51:35.152Z,4.50
2022-11-13T21:53:37.465Z,4.60
2022-11-13T21:55:39.356Z,4.60
2022-11-13T21:57:41.094Z,4.60
2022-11-13T21:59:42.775Z,4.60
2022-11-13T22:01:44.498Z,4.60
2022-11-13T22:03:46.364Z,4.60
2022-11-13T22:05:48.070Z,4.60
2022-11-13T22:07:49.762Z,4.60
2022-11-13T22:09:51.588Z,4.60
2022-11-13T22:11:53.374Z,4.50
2022-11-13T22:13:55.871Z,4.60
2022-11-13T22:15:57.940Z,4.60
2022-11-13T22:17:59.645Z,4.60
2022-11-13T22:20:01.425Z,4.60
2022-11-13T22:22:03.284Z,4.60
2022-11-13T22:24:05.920Z,4.70
2022-11-13T22:26:14.323Z,4.70
2022-11-13T22:28:16.360Z,4.70
2022-11-13T22:30:18.078Z,4.60
2022-11-13T22:32:19.793Z,4.60
2022-11-13T22:34:21.609Z,4.70
2022-11-13T22:36:31.849Z,4.70
2022-11-13T22:38:34.786Z,4.70
2022-11-13T22:40:36.550Z,4.70
2022-11-13T22:42:38.235Z,4.80
2022-11-13T22:44:54.896Z,4.80
2022-11-13T22:46:57.448Z,4.80
2022-11-13T22:49:01.763Z,4.80
2022-11-13T22:51:07.787Z,4.80
2022-11-13T22:53:10.821Z,4.80
2022-11-13T22:55:12.676Z,4.80
2022-11-13T22:57:14.423Z,4.80
2022-11-13T22:59:16.211Z,4.90
2022-11-13T23:01:20.839Z,4.90
2022-11-13T23:03:22.910Z,4.90
2022-11-13T23:05:24.755Z,4.80
2022-11-13T23:07:26.525Z,4.90
2022-11-13T23:09:29.078Z,4.90
2022-11-13T23:11:34.040Z,4.90
2022-11-13T23:13:35.868Z,4.90
2022-11-13T23:15:37.586Z,4.90
2022-11-13T23:17:39.304Z,4.90
2022-11-13T23:19:41.042Z,4.90
2022-11-13T23:21:45.611Z,4.80
2022-11-13T23:23:47.494Z,4.80
2022-11-13T23:25:49.235Z,4.80
2022-11-13T23:27:51.009Z,4.80
2022-11-13T23:29:53.804Z,4.80
2022-11-13T23:31:55.580Z,4.80
2022-11-13T23:33:57.363Z,4.90
2022-11-13T23:35:59.133Z,4.90
2022-11-13T23:38:00.849Z,4.90
2022-11-13T23:40:02.566Z,4.90
2022-11-13T23:42:04.281Z,4.90
2022-11-13T23:44:09.093Z,4.90
2022-11-13T23:46:11.574Z,4.90
2022-11-13T23:48:13.342Z,4.90
2022-11-13T23:50:15.115Z,4.90
2022-11-13T23:52:16.854Z,5.00
2022-11-13T23:54:18.566Z,4.90
2022-11-13T23:56:20.339Z,4.90
2022-11-13T23:58:22.499Z,4.90
